Startpagina
METAR-TAF:

METAR-TAF

Vliegvelden :

Providencia, Colombia

breedte: 13-22N, lengte: 081-21W, hoogte: 6 m

Actueel weer

Dit bericht is 9 uur en het 24 minuten geleden gemaakt, om 23:00 UTC
Wind 4 kt uit het noorden, variërend tussen het westen en het noordoosten
Temperatuur 28°C
Vochtigheid 79%
Druk 1012 hPa
Zicht 10 km of meer
Weinig wolken op 1700 ft
Gebroken wolken op 20000 ft

METAR: SKPV 202300Z 35004KT 280V050 9999 FEW017 BKN200 28/24 A2989

Tijdstip: 03:24 (08:24 UTC)


TAF: ontbreekt

Waarnemingen en weersverwachtingen van meer dan 4000 vliegvelden (METAR en TAF).

De beschikbare stations zijn de gele en rode punten op de kaart.

Ga met uw muis naar het station om de naam te zien.

Klik dan om waarnemingen en weersverwachtingen te zien.

kaart wijzigen: klik op de groene knoppen met een zwart kruis om in te zoomen, op de groene knop met een streepje om uit te zoomen of op de groene pijlen voor aangrenzende kaarten.


METAR-TAF: